sensor_id;sensor_type;location;lat;lon;timestamp;P1;durP1;ratioP1;P2;durP2;ratioP2
63499;SDS011;49654;51.142;14.924;2023-12-20T00:02:01;3.30;;;2.60;;
63499;SDS011;49654;51.142;14.924;2023-12-20T00:04:28;3.03;;;2.60;;
63499;SDS011;49654;51.142;14.924;2023-12-20T00:06:55;2.97;;;2.67;;
63499;SDS011;49654;51.142;14.924;2023-12-20T00:09:22;3.50;;;2.55;;
63499;SDS011;49654;51.142;14.924;2023-12-20T00:11:49;2.90;;;2.63;;
63499;SDS011;49654;51.142;14.924;2023-12-20T00:14:16;2.88;;;2.58;;
63499;SDS011;49654;51.142;14.924;2023-12-20T00:16:43;3.15;;;2.72;;
63499;SDS011;49654;51.142;14.924;2023-12-20T00:19:11;3.78;;;3.05;;
63499;SDS011;49654;51.142;14.924;2023-12-20T00:21:38;3.00;;;2.63;;
63499;SDS011;49654;51.142;14.924;2023-12-20T00:24:05;4.17;;;2.80;;
63499;SDS011;49654;51.142;14.924;2023-12-20T00:26:32;3.90;;;3.30;;
63499;SDS011;49654;51.142;14.924;2023-12-20T00:28:58;3.90;;;3.20;;
63499;SDS011;49654;51.142;14.924;2023-12-20T00:31:25;3.05;;;2.72;;
63499;SDS011;49654;51.142;14.924;2023-12-20T00:33:52;3.40;;;2.97;;
63499;SDS011;49654;51.142;14.924;2023-12-20T00:36:20;3.40;;;3.10;;
63499;SDS011;49654;51.142;14.924;2023-12-20T00:38:47;3.20;;;2.80;;
63499;SDS011;49654;51.142;14.924;2023-12-20T00:41:15;3.60;;;3.00;;
63499;SDS011;49654;51.142;14.924;2023-12-20T00:43:42;3.20;;;2.90;;
63499;SDS011;49654;51.142;14.924;2023-12-20T00:46:10;2.67;;;2.43;;
63499;SDS011;49654;51.142;14.924;2023-12-20T00:48:36;2.43;;;2.23;;
63499;SDS011;49654;51.142;14.924;2023-12-20T00:51:03;2.63;;;2.37;;
63499;SDS011;49654;51.142;14.924;2023-12-20T00:53:32;3.10;;;2.30;;
63499;SDS011;49654;51.142;14.924;2023-12-20T00:55:59;2.40;;;2.20;;
63499;SDS011;49654;51.142;14.924;2023-12-20T00:58:26;2.50;;;2.07;;
63499;SDS011;49654;51.142;14.924;2023-12-20T01:00:53;2.63;;;2.30;;
63499;SDS011;49654;51.142;14.924;2023-12-20T01:03:20;2.67;;;2.10;;
63499;SDS011;49654;51.142;14.924;2023-12-20T01:05:46;2.83;;;2.30;;
63499;SDS011;49654;51.142;14.924;2023-12-20T01:08:13;2.60;;;2.40;;
63499;SDS011;49654;51.142;14.924;2023-12-20T01:10:41;3.60;;;2.43;;
63499;SDS011;49654;51.142;14.924;2023-12-20T01:13:08;2.57;;;2.37;;
63499;SDS011;49654;51.142;14.924;2023-12-20T01:15:35;3.10;;;2.50;;
63499;SDS011;49654;51.142;14.924;2023-12-20T01:18:02;2.77;;;2.47;;
63499;SDS011;49654;51.142;14.924;2023-12-20T01:20:30;2.50;;;2.30;;
63499;SDS011;49654;51.142;14.924;2023-12-20T01:22:57;3.13;;;2.37;;
63499;SDS011;49654;51.142;14.924;2023-12-20T01:25:24;2.50;;;2.30;;
63499;SDS011;49654;51.142;14.924;2023-12-20T01:27:52;2.45;;;2.25;;
63499;SDS011;49654;51.142;14.924;2023-12-20T01:30:19;2.53;;;2.33;;
63499;SDS011;49654;51.142;14.924;2023-12-20T01:32:46;2.60;;;2.40;;
63499;SDS011;49654;51.142;14.924;2023-12-20T01:35:13;3.05;;;2.60;;
63499;SDS011;49654;51.142;14.924;2023-12-20T01:37:39;2.40;;;2.20;;
63499;SDS011;49654;51.142;14.924;2023-12-20T01:40:06;2.50;;;2.30;;
63499;SDS011;49654;51.142;14.924;2023-12-20T01:42:33;2.90;;;2.60;;
63499;SDS011;49654;51.142;14.924;2023-12-20T01:45:02;2.67;;;2.40;;
63499;SDS011;49654;51.142;14.924;2023-12-20T01:47:29;2.50;;;2.30;;
63499;SDS011;49654;51.142;14.924;2023-12-20T01:49:56;2.50;;;2.30;;
63499;SDS011;49654;51.142;14.924;2023-12-20T01:52:23;2.90;;;2.57;;
63499;SDS011;49654;51.142;14.924;2023-12-20T01:54:52;2.63;;;2.40;;
63499;SDS011;49654;51.142;14.924;2023-12-20T01:57:22;2.65;;;2.20;;
63499;SDS011;49654;51.142;14.924;2023-12-20T01:59:49;2.65;;;2.45;;
63499;SDS011;49654;51.142;14.924;2023-12-20T02:02:17;2.77;;;2.40;;
63499;SDS011;49654;51.142;14.924;2023-12-20T02:04:44;2.50;;;2.30;;
63499;SDS011;49654;51.142;14.924;2023-12-20T02:07:12;2.83;;;2.60;;
63499;SDS011;49654;51.142;14.924;2023-12-20T02:09:40;2.90;;;2.60;;
63499;SDS011;49654;51.142;14.924;2023-12-20T02:12:07;2.40;;;2.20;;
63499;SDS011;49654;51.142;14.924;2023-12-20T02:14:34;2.53;;;2.23;;
63499;SDS011;49654;51.142;14.924;2023-12-20T02:17:01;2.90;;;2.60;;
63499;SDS011;49654;51.142;14.924;2023-12-20T02:19:29;3.03;;;2.40;;
63499;SDS011;49654;51.142;14.924;2023-12-20T02:22:08;2.85;;;2.42;;
63499;SDS011;49654;51.142;14.924;2023-12-20T02:24:35;2.50;;;2.20;;
63499;SDS011;49654;51.142;14.924;2023-12-20T02:27:03;2.30;;;2.10;;
63499;SDS011;49654;51.142;14.924;2023-12-20T02:29:32;2.23;;;2.03;;
63499;SDS011;49654;51.142;14.924;2023-12-20T02:31:59;2.03;;;1.83;;
63499;SDS011;49654;51.142;14.924;2023-12-20T02:34:26;2.10;;;1.90;;
63499;SDS011;49654;51.142;14.924;2023-12-20T02:36:53;2.23;;;2.03;;
63499;SDS011;49654;51.142;14.924;2023-12-20T02:39:22;2.10;;;1.90;;
63499;SDS011;49654;51.142;14.924;2023-12-20T02:41:49;2.37;;;2.17;;
63499;SDS011;49654;51.142;14.924;2023-12-20T02:44:15;2.37;;;2.17;;
63499;SDS011;49654;51.142;14.924;2023-12-20T02:46:43;2.20;;;2.00;;
63499;SDS011;49654;51.142;14.924;2023-12-20T02:49:11;2.53;;;2.20;;
63499;SDS011;49654;51.142;14.924;2023-12-20T02:51:38;2.27;;;2.07;;
63499;SDS011;49654;51.142;14.924;2023-12-20T02:54:05;2.40;;;2.20;;
63499;SDS011;49654;51.142;14.924;2023-12-20T02:56:33;2.33;;;2.13;;
63499;SDS011;49654;51.142;14.924;2023-12-20T02:59:01;2.50;;;2.30;;
63499;SDS011;49654;51.142;14.924;2023-12-20T03:01:31;2.60;;;2.40;;
63499;SDS011;49654;51.142;14.924;2023-12-20T03:03:57;2.77;;;2.53;;
63499;SDS011;49654;51.142;14.924;2023-12-20T03:06:24;2.97;;;2.50;;
63499;SDS011;49654;51.142;14.924;2023-12-20T03:08:51;5.87;;;3.00;;
63499;SDS011;49654;51.142;14.924;2023-12-20T03:11:18;2.63;;;2.43;;
63499;SDS011;49654;51.142;14.924;2023-12-20T03:13:47;3.17;;;2.87;;
63499;SDS011;49654;51.142;14.924;2023-12-20T03:16:13;3.07;;;2.77;;
63499;SDS011;49654;51.142;14.924;2023-12-20T03:18:42;2.60;;;2.20;;
63499;SDS011;49654;51.142;14.924;2023-12-20T03:21:09;2.90;;;2.60;;
63499;SDS011;49654;51.142;14.924;2023-12-20T03:23:36;2.30;;;2.10;;
63499;SDS011;49654;51.142;14.924;2023-12-20T03:26:03;2.77;;;2.47;;
63499;SDS011;49654;51.142;14.924;2023-12-20T03:28:33;1.97;;;1.87;;
63499;SDS011;49654;51.142;14.924;2023-12-20T03:31:01;2.20;;;2.00;;
63499;SDS011;49654;51.142;14.924;2023-12-20T03:33:28;2.20;;;2.00;;
63499;SDS011;49654;51.142;14.924;2023-12-20T03:35:55;2.40;;;2.20;;
63499;SDS011;49654;51.142;14.924;2023-12-20T03:38:22;1.97;;;1.77;;
63499;SDS011;49654;51.142;14.924;2023-12-20T03:40:50;2.73;;;1.73;;
63499;SDS011;49654;51.142;14.924;2023-12-20T03:43:17;2.20;;;1.83;;
63499;SDS011;49654;51.142;14.924;2023-12-20T03:45:44;2.63;;;1.70;;
63499;SDS011;49654;51.142;14.924;2023-12-20T03:48:12;2.03;;;1.90;;
63499;SDS011;49654;51.142;14.924;2023-12-20T03:50:39;2.30;;;2.10;;
63499;SDS011;49654;51.142;14.924;2023-12-20T03:53:06;2.23;;;2.03;;
63499;SDS011;49654;51.142;14.924;2023-12-20T03:55:34;2.20;;;2.00;;
63499;SDS011;49654;51.142;14.924;2023-12-20T03:58:01;2.80;;;1.93;;
63499;SDS011;49654;51.142;14.924;2023-12-20T04:00:28;2.20;;;2.00;;
63499;SDS011;49654;51.142;14.924;2023-12-20T04:02:55;2.10;;;1.90;;
63499;SDS011;49654;51.142;14.924;2023-12-20T04:05:23;2.27;;;2.07;;
63499;SDS011;49654;51.142;14.924;2023-12-20T04:07:50;2.20;;;2.00;;
63499;SDS011;49654;51.142;14.924;2023-12-20T04:10:17;2.10;;;1.90;;
63499;SDS011;49654;51.142;14.924;2023-12-20T04:12:45;3.97;;;2.17;;
63499;SDS011;49654;51.142;14.924;2023-12-20T04:15:12;2.10;;;1.90;;
63499;SDS011;49654;51.142;14.924;2023-12-20T04:17:39;2.30;;;1.80;;
63499;SDS011;49654;51.142;14.924;2023-12-20T04:20:06;2.70;;;1.87;;
63499;SDS011;49654;51.142;14.924;2023-12-20T04:22:37;2.27;;;2.07;;
63499;SDS011;49654;51.142;14.924;2023-12-20T04:25:04;2.10;;;1.90;;
63499;SDS011;49654;51.142;14.924;2023-12-20T04:27:32;2.30;;;2.07;;
63499;SDS011;49654;51.142;14.924;2023-12-20T04:30:00;2.40;;;2.10;;
63499;SDS011;49654;51.142;14.924;2023-12-20T04:32:27;1.87;;;1.77;;
63499;SDS011;49654;51.142;14.924;2023-12-20T04:34:54;2.27;;;2.03;;
63499;SDS011;49654;51.142;14.924;2023-12-20T04:37:22;2.07;;;1.87;;
63499;SDS011;49654;51.142;14.924;2023-12-20T04:39:50;2.20;;;2.00;;
63499;SDS011;49654;51.142;14.924;2023-12-20T04:42:17;2.30;;;2.10;;
63499;SDS011;49654;51.142;14.924;2023-12-20T04:44:44;2.00;;;1.80;;
63499;SDS011;49654;51.142;14.924;2023-12-20T04:47:11;2.10;;;1.90;;
63499;SDS011;49654;51.142;14.924;2023-12-20T04:49:38;2.13;;;1.93;;
63499;SDS011;49654;51.142;14.924;2023-12-20T04:52:05;1.77;;;1.67;;
63499;SDS011;49654;51.142;14.924;2023-12-20T04:54:32;2.10;;;1.90;;
63499;SDS011;49654;51.142;14.924;2023-12-20T04:57:01;1.90;;;1.80;;
63499;SDS011;49654;51.142;14.924;2023-12-20T04:59:28;1.80;;;1.70;;
63499;SDS011;49654;51.142;14.924;2023-12-20T05:01:55;1.90;;;1.70;;
63499;SDS011;49654;51.142;14.924;2023-12-20T05:04:23;1.60;;;1.50;;
63499;SDS011;49654;51.142;14.924;2023-12-20T05:06:50;1.50;;;1.40;;
63499;SDS011;49654;51.142;14.924;2023-12-20T05:09:17;2.10;;;1.80;;
63499;SDS011;49654;51.142;14.924;2023-12-20T05:11:43;1.87;;;1.70;;
63499;SDS011;49654;51.142;14.924;2023-12-20T05:14:12;2.58;;;1.55;;
63499;SDS011;49654;51.142;14.924;2023-12-20T05:16:39;1.70;;;1.60;;
63499;SDS011;49654;51.142;14.924;2023-12-20T05:19:06;1.83;;;1.73;;
63499;SDS011;49654;51.142;14.924;2023-12-20T05:21:33;1.70;;;1.60;;
63499;SDS011;49654;51.142;14.924;2023-12-20T05:24:00;1.70;;;1.60;;
63499;SDS011;49654;51.142;14.924;2023-12-20T05:26:27;1.97;;;1.87;;
63499;SDS011;49654;51.142;14.924;2023-12-20T05:28:55;1.80;;;1.70;;
63499;SDS011;49654;51.142;14.924;2023-12-20T05:31:23;1.80;;;1.70;;
63499;SDS011;49654;51.142;14.924;2023-12-20T05:33:50;1.70;;;1.60;;
63499;SDS011;49654;51.142;14.924;2023-12-20T05:36:17;1.80;;;1.70;;
63499;SDS011;49654;51.142;14.924;2023-12-20T05:38:46;1.67;;;1.57;;
63499;SDS011;49654;51.142;14.924;2023-12-20T05:41:13;1.80;;;1.70;;
63499;SDS011;49654;51.142;14.924;2023-12-20T05:43:40;1.80;;;1.70;;
63499;SDS011;49654;51.142;14.924;2023-12-20T05:46:07;1.90;;;1.80;;
63499;SDS011;49654;51.142;14.924;2023-12-20T05:48:38;2.03;;;1.93;;
63499;SDS011;49654;51.142;14.924;2023-12-20T05:51:05;2.40;;;1.80;;
63499;SDS011;49654;51.142;14.924;2023-12-20T05:53:32;1.70;;;1.60;;
63499;SDS011;49654;51.142;14.924;2023-12-20T05:55:58;1.50;;;1.40;;
63499;SDS011;49654;51.142;14.924;2023-12-20T05:58:25;1.60;;;1.50;;
63499;SDS011;49654;51.142;14.924;2023-12-20T06:00:52;1.70;;;1.60;;
63499;SDS011;49654;51.142;14.924;2023-12-20T06:03:19;2.10;;;1.90;;
63499;SDS011;49654;51.142;14.924;2023-12-20T06:05:48;1.67;;;1.58;;
63499;SDS011;49654;51.142;14.924;2023-12-20T06:08:15;1.60;;;1.50;;
63499;SDS011;49654;51.142;14.924;2023-12-20T06:10:41;1.70;;;1.60;;
63499;SDS011;49654;51.142;14.924;2023-12-20T06:13:08;1.73;;;1.63;;
63499;SDS011;49654;51.142;14.924;2023-12-20T06:15:35;1.77;;;1.67;;
63499;SDS011;49654;51.142;14.924;2023-12-20T06:18:02;1.80;;;1.70;;
63499;SDS011;49654;51.142;14.924;2023-12-20T06:20:29;1.88;;;1.77;;
63499;SDS011;49654;51.142;14.924;2023-12-20T06:22:57;1.57;;;1.47;;
63499;SDS011;49654;51.142;14.924;2023-12-20T06:25:25;1.73;;;1.63;;
63499;SDS011;49654;51.142;14.924;2023-12-20T06:27:52;1.70;;;1.60;;
63499;SDS011;49654;51.142;14.924;2023-12-20T06:30:18;2.17;;;1.90;;
63499;SDS011;49654;51.142;14.924;2023-12-20T06:32:45;1.70;;;1.60;;
63499;SDS011;49654;51.142;14.924;2023-12-20T06:35:13;1.75;;;1.65;;
63499;SDS011;49654;51.142;14.924;2023-12-20T06:37:40;1.52;;;1.42;;
63499;SDS011;49654;51.142;14.924;2023-12-20T06:40:10;4.23;;;1.63;;
63499;SDS011;49654;51.142;14.924;2023-12-20T06:42:38;1.50;;;1.30;;
63499;SDS011;49654;51.142;14.924;2023-12-20T06:45:05;1.50;;;1.40;;
63499;SDS011;49654;51.142;14.924;2023-12-20T06:47:32;1.47;;;1.37;;
63499;SDS011;49654;51.142;14.924;2023-12-20T06:49:59;1.40;;;1.30;;
63499;SDS011;49654;51.142;14.924;2023-12-20T06:52:26;1.47;;;1.37;;
63499;SDS011;49654;51.142;14.924;2023-12-20T06:54:53;1.23;;;1.13;;
63499;SDS011;49654;51.142;14.924;2023-12-20T06:57:21;1.37;;;1.27;;
63499;SDS011;49654;51.142;14.924;2023-12-20T06:59:49;1.50;;;1.40;;
63499;SDS011;49654;51.142;14.924;2023-12-20T07:02:17;1.37;;;1.27;;
63499;SDS011;49654;51.142;14.924;2023-12-20T07:04:44;1.40;;;1.30;;
63499;SDS011;49654;51.142;14.924;2023-12-20T07:07:11;1.40;;;1.30;;
63499;SDS011;49654;51.142;14.924;2023-12-20T07:09:38;1.80;;;1.40;;
63499;SDS011;49654;51.142;14.924;2023-12-20T07:12:08;2.03;;;1.60;;
63499;SDS011;49654;51.142;14.924;2023-12-20T07:14:36;2.50;;;2.10;;
63499;SDS011;49654;51.142;14.924;2023-12-20T07:17:03;3.13;;;1.83;;
63499;SDS011;49654;51.142;14.924;2023-12-20T07:19:30;1.60;;;1.50;;
63499;SDS011;49654;51.142;14.924;2023-12-20T07:21:58;1.40;;;1.30;;
63499;SDS011;49654;51.142;14.924;2023-12-20T07:24:25;3.27;;;1.63;;
63499;SDS011;49654;51.142;14.924;2023-12-20T07:26:52;2.10;;;1.40;;
63499;SDS011;49654;51.142;14.924;2023-12-20T07:29:19;3.73;;;1.70;;
63499;SDS011;49654;51.142;14.924;2023-12-20T07:31:47;2.07;;;1.90;;
63499;SDS011;49654;51.142;14.924;2023-12-20T07:34:14;2.20;;;2.00;;
63499;SDS011;49654;51.142;14.924;2023-12-20T07:36:41;2.30;;;2.10;;
63499;SDS011;49654;51.142;14.924;2023-12-20T07:39:08;2.07;;;1.87;;
63499;SDS011;49654;51.142;14.924;2023-12-20T07:41:35;2.30;;;2.10;;
63499;SDS011;49654;51.142;14.924;2023-12-20T07:44:03;2.80;;;2.60;;
63499;SDS011;49654;51.142;14.924;2023-12-20T07:46:32;2.40;;;2.20;;
63499;SDS011;49654;51.142;14.924;2023-12-20T07:49:00;2.37;;;2.10;;
63499;SDS011;49654;51.142;14.924;2023-12-20T07:51:27;2.40;;;2.20;;
63499;SDS011;49654;51.142;14.924;2023-12-20T07:53:54;2.73;;;2.53;;
63499;SDS011;49654;51.142;14.924;2023-12-20T07:56:21;2.43;;;2.00;;
63499;SDS011;49654;51.142;14.924;2023-12-20T07:58:48;1.90;;;1.80;;
63499;SDS011;49654;51.142;14.924;2023-12-20T08:01:15;2.67;;;1.97;;
63499;SDS011;49654;51.142;14.924;2023-12-20T08:03:42;3.03;;;2.17;;
63499;SDS011;49654;51.142;14.924;2023-12-20T08:06:10;3.93;;;2.33;;
63499;SDS011;49654;51.142;14.924;2023-12-20T08:08:37;3.40;;;2.00;;
63499;SDS011;49654;51.142;14.924;2023-12-20T08:11:04;2.87;;;2.23;;
63499;SDS011;49654;51.142;14.924;2023-12-20T08:13:31;5.27;;;2.70;;
63499;SDS011;49654;51.142;14.924;2023-12-20T08:15:58;3.93;;;2.40;;
63499;SDS011;49654;51.142;14.924;2023-12-20T08:18:25;3.60;;;2.20;;
63499;SDS011;49654;51.142;14.924;2023-12-20T08:20:52;3.60;;;2.50;;
63499;SDS011;49654;51.142;14.924;2023-12-20T08:23:20;3.43;;;2.13;;
63499;SDS011;49654;51.142;14.924;2023-12-20T08:25:47;3.93;;;2.43;;
63499;SDS011;49654;51.142;14.924;2023-12-20T08:28:14;4.57;;;2.60;;
63499;SDS011;49654;51.142;14.924;2023-12-20T08:30:42;3.83;;;2.17;;
63499;SDS011;49654;51.142;14.924;2023-12-20T08:33:08;3.83;;;2.30;;
63499;SDS011;49654;51.142;14.924;2023-12-20T08:35:38;5.97;;;2.60;;
63499;SDS011;49654;51.142;14.924;2023-12-20T08:38:05;7.40;;;2.53;;
63499;SDS011;49654;51.142;14.924;2023-12-20T08:40:34;5.00;;;2.00;;
63499;SDS011;49654;51.142;14.924;2023-12-20T08:43:01;5.63;;;2.20;;
63499;SDS011;49654;51.142;14.924;2023-12-20T08:45:28;4.83;;;2.40;;
63499;SDS011;49654;51.142;14.924;2023-12-20T08:47:55;6.27;;;2.27;;
63499;SDS011;49654;51.142;14.924;2023-12-20T08:50:25;4.40;;;2.10;;
63499;SDS011;49654;51.142;14.924;2023-12-20T08:52:52;4.33;;;1.63;;
63499;SDS011;49654;51.142;14.924;2023-12-20T08:55:19;5.07;;;2.20;;
63499;SDS011;49654;51.142;14.924;2023-12-20T08:57:48;4.20;;;2.17;;
63499;SDS011;49654;51.142;14.924;2023-12-20T09:00:16;4.63;;;1.80;;
63499;SDS011;49654;51.142;14.924;2023-12-20T09:02:46;6.32;;;1.70;;
63499;SDS011;49654;51.142;14.924;2023-12-20T09:05:13;5.07;;;1.60;;
63499;SDS011;49654;51.142;14.924;2023-12-20T09:07:39;3.00;;;1.57;;
63499;SDS011;49654;51.142;14.924;2023-12-20T09:10:07;5.90;;;1.90;;
63499;SDS011;49654;51.142;14.924;2023-12-20T09:12:34;3.40;;;1.60;;
63499;SDS011;49654;51.142;14.924;2023-12-20T09:15:05;4.85;;;2.40;;
63499;SDS011;49654;51.142;14.924;2023-12-20T09:17:32;5.95;;;2.10;;
63499;SDS011;49654;51.142;14.924;2023-12-20T09:19:58;5.43;;;2.30;;
63499;SDS011;49654;51.142;14.924;2023-12-20T09:22:25;5.40;;;2.10;;
63499;SDS011;49654;51.142;14.924;2023-12-20T09:24:52;3.60;;;1.87;;
63499;SDS011;49654;51.142;14.924;2023-12-20T09:27:19;3.17;;;2.08;;
63499;SDS011;49654;51.142;14.924;2023-12-20T09:29:46;6.47;;;1.80;;
63499;SDS011;49654;51.142;14.924;2023-12-20T09:32:15;4.00;;;2.00;;
63499;SDS011;49654;51.142;14.924;2023-12-20T09:34:42;2.57;;;1.80;;
63499;SDS011;49654;51.142;14.924;2023-12-20T09:37:11;4.20;;;2.08;;
63499;SDS011;49654;51.142;14.924;2023-12-20T09:39:38;3.63;;;2.27;;
63499;SDS011;49654;51.142;14.924;2023-12-20T09:42:05;4.10;;;1.85;;
63499;SDS011;49654;51.142;14.924;2023-12-20T09:44:33;2.63;;;1.92;;
63499;SDS011;49654;51.142;14.924;2023-12-20T09:47:01;3.40;;;2.20;;
63499;SDS011;49654;51.142;14.924;2023-12-20T09:49:31;3.58;;;1.80;;
63499;SDS011;49654;51.142;14.924;2023-12-20T09:51:59;3.67;;;2.13;;
63499;SDS011;49654;51.142;14.924;2023-12-20T09:54:28;3.55;;;2.15;;
63499;SDS011;49654;51.142;14.924;2023-12-20T09:56:56;4.23;;;2.20;;
63499;SDS011;49654;51.142;14.924;2023-12-20T09:59:23;3.13;;;2.20;;
63499;SDS011;49654;51.142;14.924;2023-12-20T10:01:50;3.23;;;2.30;;
63499;SDS011;49654;51.142;14.924;2023-12-20T10:04:22;3.37;;;1.87;;
63499;SDS011;49654;51.142;14.924;2023-12-20T10:06:50;3.87;;;2.30;;
63499;SDS011;49654;51.142;14.924;2023-12-20T10:09:18;4.83;;;1.90;;
63499;SDS011;49654;51.142;14.924;2023-12-20T10:11:45;4.38;;;2.00;;
63499;SDS011;49654;51.142;14.924;2023-12-20T10:14:12;3.33;;;1.80;;
63499;SDS011;49654;51.142;14.924;2023-12-20T10:16:40;4.40;;;1.80;;
63499;SDS011;49654;51.142;14.924;2023-12-20T10:19:07;3.45;;;1.83;;
63499;SDS011;49654;51.142;14.924;2023-12-20T10:21:34;6.10;;;1.60;;
63499;SDS011;49654;51.142;14.924;2023-12-20T10:24:02;4.07;;;1.77;;
63499;SDS011;49654;51.142;14.924;2023-12-20T10:26:30;5.47;;;1.80;;
63499;SDS011;49654;51.142;14.924;2023-12-20T10:28:59;4.78;;;1.70;;
63499;SDS011;49654;51.142;14.924;2023-12-20T10:31:28;4.60;;;1.57;;
63499;SDS011;49654;51.142;14.924;2023-12-20T10:33:56;4.13;;;1.70;;
63499;SDS011;49654;51.142;14.924;2023-12-20T10:36:25;3.38;;;1.60;;
63499;SDS011;49654;51.142;14.924;2023-12-20T10:38:53;4.40;;;1.70;;
63499;SDS011;49654;51.142;14.924;2023-12-20T10:41:23;4.57;;;1.80;;
63499;SDS011;49654;51.142;14.924;2023-12-20T10:43:53;4.97;;;1.83;;
63499;SDS011;49654;51.142;14.924;2023-12-20T10:46:22;3.22;;;1.40;;
63499;SDS011;49654;51.142;14.924;2023-12-20T10:48:52;6.07;;;1.80;;
63499;SDS011;49654;51.142;14.924;2023-12-20T10:51:20;3.42;;;1.42;;
63499;SDS011;49654;51.142;14.924;2023-12-20T10:53:48;3.65;;;1.45;;
63499;SDS011;49654;51.142;14.924;2023-12-20T10:56:16;4.68;;;1.33;;
63499;SDS011;49654;51.142;14.924;2023-12-20T10:58:46;6.50;;;2.00;;
63499;SDS011;49654;51.142;14.924;2023-12-20T11:01:14;4.70;;;1.48;;
63499;SDS011;49654;51.142;14.924;2023-12-20T11:03:43;6.50;;;2.90;;
63499;SDS011;49654;51.142;14.924;2023-12-20T11:06:19;5.00;;;1.77;;
63499;SDS011;49654;51.142;14.924;2023-12-20T11:08:58;2.90;;;1.50;;
63499;SDS011;49654;51.142;14.924;2023-12-20T11:11:37;2.67;;;1.47;;
63499;SDS011;49654;51.142;14.924;2023-12-20T11:14:16;6.72;;;1.63;;
63499;SDS011;49654;51.142;14.924;2023-12-20T11:16:46;6.38;;;1.67;;
63499;SDS011;49654;51.142;14.924;2023-12-20T11:19:13;4.50;;;1.73;;
63499;SDS011;49654;51.142;14.924;2023-12-20T11:21:41;3.60;;;1.75;;
63499;SDS011;49654;51.142;14.924;2023-12-20T11:24:08;4.87;;;1.97;;
63499;SDS011;49654;51.142;14.924;2023-12-20T11:26:36;6.63;;;1.80;;
63499;SDS011;49654;51.142;14.924;2023-12-20T11:32:03;4.95;;;1.77;;
63499;SDS011;49654;51.142;14.924;2023-12-20T11:34:50;3.33;;;1.92;;
63499;SDS011;49654;51.142;14.924;2023-12-20T11:37:18;4.05;;;1.83;;
63499;SDS011;49654;51.142;14.924;2023-12-20T11:39:51;3.42;;;1.52;;
63499;SDS011;49654;51.142;14.924;2023-12-20T11:42:21;3.47;;;1.70;;
63499;SDS011;49654;51.142;14.924;2023-12-20T11:44:49;6.47;;;2.15;;
63499;SDS011;49654;51.142;14.924;2023-12-20T11:47:16;3.90;;;1.40;;
63499;SDS011;49654;51.142;14.924;2023-12-20T11:49:46;5.50;;;1.80;;
63499;SDS011;49654;51.142;14.924;2023-12-20T11:52:15;6.10;;;1.70;;
63499;SDS011;49654;51.142;14.924;2023-12-20T11:54:42;5.68;;;1.80;;
63499;SDS011;49654;51.142;14.924;2023-12-20T11:57:09;6.25;;;3.22;;
63499;SDS011;49654;51.142;14.924;2023-12-20T11:59:36;6.72;;;2.75;;
63499;SDS011;49654;51.142;14.924;2023-12-20T12:02:05;6.97;;;4.18;;
63499;SDS011;49654;51.142;14.924;2023-12-20T12:04:32;3.25;;;1.70;;
63499;SDS011;49654;51.142;14.924;2023-12-20T12:06:59;6.25;;;1.88;;
63499;SDS011;49654;51.142;14.924;2023-12-20T12:09:26;5.18;;;2.28;;
63499;SDS011;49654;51.142;14.924;2023-12-20T12:11:53;4.82;;;1.85;;
63499;SDS011;49654;51.142;14.924;2023-12-20T12:14:20;4.40;;;1.65;;
63499;SDS011;49654;51.142;14.924;2023-12-20T12:16:47;3.90;;;1.70;;
63499;SDS011;49654;51.142;14.924;2023-12-20T12:19:23;9.98;;;2.00;;
63499;SDS011;49654;51.142;14.924;2023-12-20T12:21:51;5.53;;;1.95;;
63499;SDS011;49654;51.142;14.924;2023-12-20T12:24:30;3.67;;;1.70;;
63499;SDS011;49654;51.142;14.924;2023-12-20T12:26:57;6.27;;;1.83;;
63499;SDS011;49654;51.142;14.924;2023-12-20T12:29:24;4.93;;;1.80;;
63499;SDS011;49654;51.142;14.924;2023-12-20T12:31:51;6.65;;;2.30;;
63499;SDS011;49654;51.142;14.924;2023-12-20T12:34:18;3.77;;;1.70;;
63499;SDS011;49654;51.142;14.924;2023-12-20T12:36:47;4.38;;;1.80;;
63499;SDS011;49654;51.142;14.924;2023-12-20T12:39:15;10.35;;;4.85;;
63499;SDS011;49654;51.142;14.924;2023-12-20T12:41:44;14.30;;;8.13;;
63499;SDS011;49654;51.142;14.924;2023-12-20T12:44:11;3.95;;;1.80;;
63499;SDS011;49654;51.142;14.924;2023-12-20T12:46:38;4.93;;;1.63;;
63499;SDS011;49654;51.142;14.924;2023-12-20T12:49:07;4.60;;;2.20;;
63499;SDS011;49654;51.142;14.924;2023-12-20T12:51:35;5.18;;;1.65;;
63499;SDS011;49654;51.142;14.924;2023-12-20T12:54:03;6.18;;;1.60;;
63499;SDS011;49654;51.142;14.924;2023-12-20T12:56:30;6.28;;;1.90;;
63499;SDS011;49654;51.142;14.924;2023-12-20T12:58:59;5.72;;;3.20;;
63499;SDS011;49654;51.142;14.924;2023-12-20T13:01:26;5.20;;;2.10;;
63499;SDS011;49654;51.142;14.924;2023-12-20T13:03:53;4.90;;;1.77;;
63499;SDS011;49654;51.142;14.924;2023-12-20T13:06:21;4.00;;;1.90;;
63499;SDS011;49654;51.142;14.924;2023-12-20T13:08:50;8.27;;;1.63;;
63499;SDS011;49654;51.142;14.924;2023-12-20T13:11:18;5.43;;;1.52;;
63499;SDS011;49654;51.142;14.924;2023-12-20T13:13:45;4.78;;;1.80;;
63499;SDS011;49654;51.142;14.924;2023-12-20T13:16:12;5.38;;;1.60;;
63499;SDS011;49654;51.142;14.924;2023-12-20T13:18:40;3.55;;;1.60;;
63499;SDS011;49654;51.142;14.924;2023-12-20T13:21:08;5.22;;;3.83;;
63499;SDS011;49654;51.142;14.924;2023-12-20T13:23:35;4.13;;;1.75;;
63499;SDS011;49654;51.142;14.924;2023-12-20T13:26:03;6.95;;;1.85;;
63499;SDS011;49654;51.142;14.924;2023-12-20T13:28:31;2.97;;;1.50;;
63499;SDS011;49654;51.142;14.924;2023-12-20T13:30:59;5.90;;;2.08;;
63499;SDS011;49654;51.142;14.924;2023-12-20T13:33:26;5.28;;;2.08;;
63499;SDS011;49654;51.142;14.924;2023-12-20T13:35:53;4.05;;;1.70;;
63499;SDS011;49654;51.142;14.924;2023-12-20T13:38:21;3.25;;;1.60;;
63499;SDS011;49654;51.142;14.924;2023-12-20T13:40:48;4.55;;;1.83;;
63499;SDS011;49654;51.142;14.924;2023-12-20T13:43:15;5.25;;;1.80;;
63499;SDS011;49654;51.142;14.924;2023-12-20T13:45:47;2.77;;;1.53;;
63499;SDS011;49654;51.142;14.924;2023-12-20T13:48:14;5.13;;;1.77;;
63499;SDS011;49654;51.142;14.924;2023-12-20T13:50:41;5.18;;;1.80;;
63499;SDS011;49654;51.142;14.924;2023-12-20T13:53:09;4.60;;;1.58;;
63499;SDS011;49654;51.142;14.924;2023-12-20T13:55:36;3.28;;;1.48;;
63499;SDS011;49654;51.142;14.924;2023-12-20T13:58:03;5.05;;;1.92;;
63499;SDS011;49654;51.142;14.924;2023-12-20T14:00:30;3.08;;;1.75;;
63499;SDS011;49654;51.142;14.924;2023-12-20T14:02:58;6.20;;;1.75;;
63499;SDS011;49654;51.142;14.924;2023-12-20T14:05:25;6.32;;;1.92;;
63499;SDS011;49654;51.142;14.924;2023-12-20T14:07:53;1.90;;;1.23;;
63499;SDS011;49654;51.142;14.924;2023-12-20T14:10:20;4.55;;;1.60;;
63499;SDS011;49654;51.142;14.924;2023-12-20T14:12:47;5.53;;;2.22;;
63499;SDS011;49654;51.142;14.924;2023-12-20T14:15:14;7.25;;;2.05;;
63499;SDS011;49654;51.142;14.924;2023-12-20T14:17:41;5.50;;;1.67;;
63499;SDS011;49654;51.142;14.924;2023-12-20T14:20:10;3.95;;;1.75;;
63499;SDS011;49654;51.142;14.924;2023-12-20T14:22:38;4.18;;;1.55;;
63499;SDS011;49654;51.142;14.924;2023-12-20T14:25:10;5.57;;;1.80;;
63499;SDS011;49654;51.142;14.924;2023-12-20T14:27:37;4.38;;;1.90;;
63499;SDS011;49654;51.142;14.924;2023-12-20T14:30:05;2.67;;;1.55;;
63499;SDS011;49654;51.142;14.924;2023-12-20T14:32:34;3.33;;;1.73;;
63499;SDS011;49654;51.142;14.924;2023-12-20T14:35:04;4.15;;;1.52;;
63499;SDS011;49654;51.142;14.924;2023-12-20T14:37:33;4.38;;;1.40;;
63499;SDS011;49654;51.142;14.924;2023-12-20T14:40:00;3.53;;;1.38;;